Forty Four, Arkansas
Current Conditions -  °F | °C
As of 10:53 PM on Friday 28 Nov 2014 (Local Time) from KBPK Reporting Station
Clear Clear  
Wind Chill: 44°   Ceiling: Unl
Heat Index: 46°   Visibility: 10mi
Dew Point: 38°   Wind: 5mph
Humidity: 73%   Direction: 180°S
Pressure: 29.94"   Gusts: NA
Location:  36.2138°N, 92.0067°W
Report Text: KBPK 290453Z AUTO 18004KT 10SM CLR 08/03 A2994 RMK AO2 SLP138 T00780033
Loading
Personal Weather Stations






























Interactive Weather Map New forecast layout! Learn more

10-Day Weather Forecast

Advertisements
Track Severe Weather on mobile